»·PEaware :: N544JH KSNA-KLAS

N544JH :: KSNA-KLAS

FLIGHT INFORMATION

Flight Status: Arrived
Operator: Privately registered:
United States
More flights under this callsign
Pilot: Merv A. (1555)
Aircraft: Unknown
(B60T)
More flights by this aircraft type
Origin: KSNA John Wayne-Orange Co
United States
Destination: KLAS McCarran Intl
United States
More flights between these airports :: More routes between these airports
Route: +MUSEL8 DAG CRESO4
File this flight plan on PilotEdge
Remarks: RMK / custom time
Altitude:
(Current/Filed)
21,000ft
Speed:
(Current/Filed)
260kts
Departed: 04-Jan-18 02:18 PM
Arrived: 04-Jan-18 03:22 PM
Distance/Time
Traveled:
196nm/1:03
Distance/Time
To Go:
Arrived

Flight Plot

Page will automatically refresh every two minutes.

Flight plan parsing failed; only flown route is shown


Map Options




Map Legend


Flown Route
Filed Route
Departure Airport
Arrival Airport
Navaid (VOR, NDB)
Fix

Horizontal Profiles

Position Reports

Time Latitude Longitude Heading Altitude Ground
Speed
04-Jan-18 13:52 33.667690 -117.875634 28 59ft 0kts
04-Jan-18 13:53 33.667690 -117.875634 28 59ft 0kts
04-Jan-18 13:54 33.667690 -117.875634 28 59ft 0kts
04-Jan-18 13:55 33.667690 -117.875634 28 59ft 0kts
04-Jan-18 13:56 33.667690 -117.875634 28 59ft 0kts
04-Jan-18 13:57 33.667690 -117.875634 28 59ft 0kts
04-Jan-18 13:58 33.667690 -117.875634 28 59ft 0kts
04-Jan-18 13:59 33.667690 -117.875634 28 59ft 0kts
04-Jan-18 14:00 33.667690 -117.875634 28 59ft 0kts
04-Jan-18 14:01 33.667691 -117.875633 28 59ft 0kts
04-Jan-18 14:02 33.667694 -117.875632 28 59ft 0kts
04-Jan-18 14:03 33.667696 -117.875630 28 59ft 0kts
04-Jan-18 14:04 33.667698 -117.875629 28 59ft 0kts
04-Jan-18 14:05 33.667701 -117.875628 28 59ft 0kts
04-Jan-18 14:06 33.667703 -117.875626 28 59ft 0kts
04-Jan-18 14:07 33.667705 -117.875625 28 59ft 0kts
04-Jan-18 14:08 33.667707 -117.875623 28 59ft 0kts
04-Jan-18 14:09 33.667709 -117.875622 28 59ft 0kts
04-Jan-18 14:10 33.667712 -117.875620 28 59ft 0kts
04-Jan-18 14:11 33.667714 -117.875619 28 59ft 0kts
04-Jan-18 14:12 33.667717 -117.875617 28 59ft 0kts
04-Jan-18 14:13 33.667720 -117.875615 28 59ft 0kts
04-Jan-18 14:14 33.667722 -117.875613 28 59ft 0kts
04-Jan-18 14:15 33.667769 -117.875238 61 59ft 3kts
04-Jan-18 14:16 33.670002 -117.873952 27 59ft 14kts
04-Jan-18 14:17 33.673772 -117.871562 27 59ft 15kts
04-Jan-18 14:18 33.677567 -117.869161 27 59ft 15kts
04-Jan-18 14:19 33.681126 -117.867104 36 59ft 9kts
04-Jan-18 14:20 33.681207 -117.866471 111 59ft 0kts
04-Jan-18 14:21 33.681206 -117.866468 111 59ft 0kts
04-Jan-18 14:22 33.680858 -117.865709 151 59ft 7kts
04-Jan-18 14:23 33.679923 -117.866158 207 59ft 38kts
04-Jan-18 14:24 33.643574 -117.887705 195 1943ft 150kts
04-Jan-18 14:25 33.609154 -117.894674 190 3856ft 153kts
04-Jan-18 14:26 33.565250 -117.902758 192 6032ft 168kts
04-Jan-18 14:27 33.524128 -117.924053 252 7930ft 172kts
04-Jan-18 14:28 33.532506 -117.984300 298 9216ft 180kts
04-Jan-18 14:29 33.587544 -118.001747 345 11972ft 178kts
04-Jan-18 14:30 33.627522 -118.011888 341 13950ft 180kts
04-Jan-18 14:31 33.676756 -118.025405 340 16348ft 182kts
04-Jan-18 14:32 33.736347 -118.041886 339 18817ft 196kts
04-Jan-18 14:33 33.781848 -118.051336 1 20490ft 208kts
04-Jan-18 14:34 33.835699 -118.007798 32 21151ft 256kts
04-Jan-18 14:35 33.893742 -117.954863 32 21140ft 265kts
04-Jan-18 14:36 33.953438 -117.900664 32 21154ft 272kts
04-Jan-18 14:37 34.014111 -117.845518 32 21172ft 276kts
04-Jan-18 14:38 34.075575 -117.789385 35 21193ft 278kts
04-Jan-18 14:39 34.128221 -117.720025 44 21187ft 281kts
04-Jan-18 14:40 34.180829 -117.649041 44 21168ft 282kts
04-Jan-18 14:41 34.232832 -117.578790 44 21168ft 281kts
04-Jan-18 14:42 34.285129 -117.508015 44 21173ft 280kts
04-Jan-18 14:43 34.336802 -117.437970 44 21176ft 280kts
04-Jan-18 14:44 34.388657 -117.367484 44 21183ft 279kts
04-Jan-18 14:45 34.440190 -117.297314 44 21189ft 279kts
04-Jan-18 14:46 34.491770 -117.226950 44 21194ft 278kts
04-Jan-18 14:47 34.542999 -117.156916 44 21212ft 277kts
04-Jan-18 14:48 34.594113 -117.086891 44 21217ft 277kts
04-Jan-18 14:49 34.645322 -117.016609 44 21216ft 277kts
04-Jan-18 14:50 34.696299 -116.946496 44 21205ft 277kts
04-Jan-18 14:51 34.747393 -116.876082 44 21192ft 277kts
04-Jan-18 14:52 34.798220 -116.805890 44 21182ft 276kts
04-Jan-18 14:53 34.848865 -116.735801 44 21179ft 275kts
04-Jan-18 14:54 34.899545 -116.665529 44 21179ft 275kts
04-Jan-18 14:55 34.949950 -116.595492 44 21185ft 275kts
04-Jan-18 14:56 34.990445 -116.515411 58 21189ft 278kts
04-Jan-18 14:57 35.027185 -116.432534 58 21195ft 279kts
04-Jan-18 14:58 35.064211 -116.348956 58 21195ft 279kts
04-Jan-18 14:59 35.101643 -116.264297 58 20618ft 283kts
04-Jan-18 15:00 35.137752 -116.182342 58 19461ft 266kts
04-Jan-18 15:01 35.172378 -116.103663 59 18265ft 261kts
04-Jan-18 15:02 35.206854 -116.025151 59 17160ft 262kts
04-Jan-18 15:03 35.240944 -115.947283 59 16065ft 256kts
04-Jan-18 15:04 35.274189 -115.871211 59 14963ft 251kts
04-Jan-18 15:05 35.306934 -115.796121 60 13875ft 249kts
04-Jan-18 15:06 35.351336 -115.732699 45 12883ft 244kts
04-Jan-18 15:07 35.396970 -115.671991 46 11884ft 240kts
04-Jan-18 15:08 35.441967 -115.611899 46 10937ft 237kts
04-Jan-18 15:09 35.486228 -115.552632 46 10108ft 231kts
04-Jan-18 15:10 35.528397 -115.496124 46 9993ft 221kts
04-Jan-18 15:11 35.569917 -115.440456 46 9997ft 221kts
04-Jan-18 15:12 35.611681 -115.384288 46 9998ft 221kts
04-Jan-18 15:13 35.653060 -115.328568 46 10001ft 222kts
04-Jan-18 15:14 35.694728 -115.272369 46 10005ft 222kts
04-Jan-18 15:15 35.736426 -115.216027 46 10008ft 222kts
04-Jan-18 15:16 35.777913 -115.159886 46 10008ft 222kts
04-Jan-18 15:17 35.818863 -115.104393 46 10009ft 217kts
04-Jan-18 15:18 35.859287 -115.049526 46 10008ft 216kts
04-Jan-18 15:19 35.910512 -115.020178 1 9263ft 208kts
04-Jan-18 15:20 35.967163 -115.017808 0 8032ft 204kts
04-Jan-18 15:21 36.024610 -115.016230 0 7053ft 199kts
04-Jan-18 15:22 36.063012 -115.045596 286 6532ft 163kts
04-Jan-18 15:23 36.073621 -115.094088 283 5563ft 144kts
04-Jan-18 15:24 36.107750 -115.099595 21 4578ft 139kts
04-Jan-18 15:25 36.137219 -115.099758 285 3691ft 114kts
04-Jan-18 15:26 36.136203 -115.135717 215 3252ft 106kts
04-Jan-18 15:27 36.109863 -115.150255 203 2660ft 109kts
04-Jan-18 15:28 36.086758 -115.163811 203 2184ft 37kts
04-Jan-18 15:29 36.083792 -115.166662 232 2184ft 0kts
04-Jan-18 15:30 36.083604 -115.166965 232 2184ft 4kts
04-Jan-18 15:31 36.082511 -115.168683 202 2184ft 8kts
04-Jan-18 15:32 36.079986 -115.170275 290 2184ft 5kts
04-Jan-18 15:33 36.080357 -115.170697 306 2184ft 0kts
04-Jan-18 15:34 36.080357 -115.170697 306 2184ft 0kts

Navigation Log

Ident Type
Flight plan parsing failed, navigation log unavailable